sensor_id;sensor_type;location;lat;lon;timestamp;pressure;altitude;pressure_sealevel;temperature;humidity
69318;BME280;56457;52.190;4.440;2023-04-24T00:00:28;100079.03;;;9.96;100.00
69318;BME280;56457;52.190;4.440;2023-04-24T00:01:30;100073.78;;;9.96;100.00
69318;BME280;56457;52.190;4.440;2023-04-24T00:02:31;100080.88;;;9.91;100.00
69318;BME280;56457;52.190;4.440;2023-04-24T00:03:32;100076.56;;;9.88;100.00
69318;BME280;56457;52.190;4.440;2023-04-24T00:04:32;100077.41;;;9.89;100.00
69318;BME280;56457;52.190;4.440;2023-04-24T00:05:33;100078.25;;;9.91;100.00
69318;BME280;56457;52.190;4.440;2023-04-24T00:06:33;100087.88;;;9.90;100.00
69318;BME280;56457;52.190;4.440;2023-04-24T00:07:34;100091.34;;;9.91;100.00
69318;BME280;56457;52.190;4.440;2023-04-24T00:08:35;100087.03;;;9.88;100.00
69318;BME280;56457;52.190;4.440;2023-04-24T00:09:36;100093.16;;;9.86;100.00
69318;BME280;56457;52.190;4.440;2023-04-24T00:10:36;100085.28;;;9.87;100.00
69318;BME280;56457;52.190;4.440;2023-04-24T00:11:36;100086.13;;;9.89;100.00
69318;BME280;56457;52.190;4.440;2023-04-24T00:12:37;100087.09;;;9.84;100.00
69318;BME280;56457;52.190;4.440;2023-04-24T00:13:37;100091.50;;;9.80;100.00
69318;BME280;56457;52.190;4.440;2023-04-24T00:14:38;100088.06;;;9.78;100.00
69318;BME280;56457;52.190;4.440;2023-04-24T00:15:38;100091.66;;;9.73;100.00
69318;BME280;56457;52.190;4.440;2023-04-24T00:16:38;100092.50;;;9.73;100.00
69318;BME280;56457;52.190;4.440;2023-04-24T00:17:38;100080.31;;;9.72;100.00
69318;BME280;56457;52.190;4.440;2023-04-24T00:18:39;100083.81;;;9.71;100.00
69318;BME280;56457;52.190;4.440;2023-04-24T00:19:39;100099.56;;;9.69;100.00
69318;BME280;56457;52.190;4.440;2023-04-24T00:20:40;100091.75;;;9.66;100.00
69318;BME280;56457;52.190;4.440;2023-04-24T00:21:40;100092.56;;;9.68;100.00
69318;BME280;56457;52.190;4.440;2023-04-24T00:22:41;100097.88;;;9.65;100.00
69318;BME280;56457;52.190;4.440;2023-04-24T00:23:41;100097.91;;;9.62;100.00
69318;BME280;56457;52.190;4.440;2023-04-24T00:24:41;100104.03;;;9.61;100.00
69318;BME280;56457;52.190;4.440;2023-04-24T00:25:41;100102.31;;;9.60;100.00
69318;BME280;56457;52.190;4.440;2023-04-24T00:26:42;100101.44;;;9.61;100.00
69318;BME280;56457;52.190;4.440;2023-04-24T00:27:42;100105.84;;;9.59;100.00
69318;BME280;56457;52.190;4.440;2023-04-24T00:28:42;100104.03;;;9.61;100.00
69318;BME280;56457;52.190;4.440;2023-04-24T00:29:43;100108.41;;;9.61;100.00
69318;BME280;56457;52.190;4.440;2023-04-24T00:30:43;100100.53;;;9.62;100.00
69318;BME280;56457;52.190;4.440;2023-04-24T00:31:43;100108.38;;;9.64;100.00
69318;BME280;56457;52.190;4.440;2023-04-24T00:32:43;100101.44;;;9.63;100.00
69318;BME280;56457;52.190;4.440;2023-04-24T00:33:44;100107.53;;;9.63;100.00
69318;BME280;56457;52.190;4.440;2023-04-24T00:34:44;100103.25;;;9.58;100.00
69318;BME280;56457;52.190;4.440;2023-04-24T00:35:44;100102.41;;;9.54;100.00
69318;BME280;56457;52.190;4.440;2023-04-24T00:36:44;100104.09;;;9.58;100.00
69318;BME280;56457;52.190;4.440;2023-04-24T00:37:45;100104.97;;;9.59;100.00
69318;BME280;56457;52.190;4.440;2023-04-24T00:38:45;100109.28;;;9.61;100.00
69318;BME280;56457;52.190;4.440;2023-04-24T00:39:46;100098.91;;;9.55;100.00
69318;BME280;56457;52.190;4.440;2023-04-24T00:40:46;100103.25;;;9.56;100.00
69318;BME280;56457;52.190;4.440;2023-04-24T00:41:47;100112.84;;;9.57;100.00
69318;BME280;56457;52.190;4.440;2023-04-24T00:42:48;100103.22;;;9.59;100.00
69318;BME280;56457;52.190;4.440;2023-04-24T00:43:48;100103.25;;;9.58;100.00
69318;BME280;56457;52.190;4.440;2023-04-24T00:44:49;100106.75;;;9.55;100.00
69318;BME280;56457;52.190;4.440;2023-04-24T00:45:49;100102.41;;;9.54;100.00
69318;BME280;56457;52.190;4.440;2023-04-24T00:46:50;100112.06;;;9.52;100.00
69318;BME280;56457;52.190;4.440;2023-04-24T00:47:54;100110.34;;;9.51;100.00
69318;BME280;56457;52.190;4.440;2023-04-24T00:48:55;100097.28;;;9.48;100.00
69318;BME280;56457;52.190;4.440;2023-04-24T00:49:56;100105.94;;;9.53;100.00
69318;BME280;56457;52.190;4.440;2023-04-24T00:50:56;100115.50;;;9.54;100.00
69318;BME280;56457;52.190;4.440;2023-04-24T00:51:57;100105.06;;;9.53;100.00
69318;BME280;56457;52.190;4.440;2023-04-24T00:52:59;100110.31;;;9.53;100.00
69318;BME280;56457;52.190;4.440;2023-04-24T00:54:00;100113.75;;;9.55;100.00
69318;BME280;56457;52.190;4.440;2023-04-24T00:55:00;100103.34;;;9.50;100.00
69318;BME280;56457;52.190;4.440;2023-04-24T00:56:01;100109.38;;;9.57;100.00
69318;BME280;56457;52.190;4.440;2023-04-24T00:57:04;100107.63;;;9.57;100.00
69318;BME280;56457;52.190;4.440;2023-04-24T00:58:05;100112.84;;;9.56;100.00
69318;BME280;56457;52.190;4.440;2023-04-24T00:59:06;100106.75;;;9.55;100.00
69318;BME280;56457;52.190;4.440;2023-04-24T01:00:06;100111.19;;;9.50;100.00
69318;BME280;56457;52.190;4.440;2023-04-24T01:01:11;100104.19;;;9.52;100.00
69318;BME280;56457;52.190;4.440;2023-04-24T01:02:12;100117.19;;;9.58;100.00
69318;BME280;56457;52.190;4.440;2023-04-24T01:03:12;100116.31;;;9.59;100.00
69318;BME280;56457;52.190;4.440;2023-04-24T01:04:14;100110.25;;;9.57;100.00
69318;BME280;56457;52.190;4.440;2023-04-24T01:05:15;100112.00;;;9.55;100.00
69318;BME280;56457;52.190;4.440;2023-04-24T01:06:17;100114.56;;;9.60;100.00
69318;BME280;56457;52.190;4.440;2023-04-24T01:07:19;100106.63;;;9.64;100.00
69318;BME280;56457;52.190;4.440;2023-04-24T01:08:20;100114.53;;;9.61;100.00
69318;BME280;56457;52.190;4.440;2023-04-24T01:09:23;100111.97;;;9.58;100.00
69318;BME280;56457;52.190;4.440;2023-04-24T01:10:24;100104.13;;;9.55;100.00
69318;BME280;56457;52.190;4.440;2023-04-24T01:11:25;100111.06;;;9.59;100.00
69318;BME280;56457;52.190;4.440;2023-04-24T01:12:26;100122.38;;;9.61;100.00
69318;BME280;56457;52.190;4.440;2023-04-24T01:13:26;100115.41;;;9.60;100.00
69318;BME280;56457;52.190;4.440;2023-04-24T01:14:27;100117.13;;;9.63;100.00
69318;BME280;56457;52.190;4.440;2023-04-24T01:15:27;100113.63;;;9.62;100.00
69318;BME280;56457;52.190;4.440;2023-04-24T01:16:27;100107.47;;;9.66;100.00
69318;BME280;56457;52.190;4.440;2023-04-24T01:17:27;100112.72;;;9.65;100.00
69318;BME280;56457;52.190;4.440;2023-04-24T01:18:28;100111.84;;;9.66;100.00
69318;BME280;56457;52.190;4.440;2023-04-24T01:19:28;100108.31;;;9.67;100.00
69318;BME280;56457;52.190;4.440;2023-04-24T01:20:29;100116.25;;;9.62;100.00
69318;BME280;56457;52.190;4.440;2023-04-24T01:21:30;100110.97;;;9.65;100.00
69318;BME280;56457;52.190;4.440;2023-04-24T01:22:30;100110.16;;;9.63;100.00
69318;BME280;56457;52.190;4.440;2023-04-24T01:23:31;100110.16;;;9.63;100.00
69318;BME280;56457;52.190;4.440;2023-04-24T01:24:31;100109.28;;;9.61;100.00
69318;BME280;56457;52.190;4.440;2023-04-24T01:25:31;100114.59;;;9.58;100.00
69318;BME280;56457;52.190;4.440;2023-04-24T01:26:32;100108.47;;;9.58;100.00
69318;BME280;56457;52.190;4.440;2023-04-24T01:27:32;100115.38;;;9.62;100.00
69318;BME280;56457;52.190;4.440;2023-04-24T01:28:33;100111.00;;;9.62;100.00
69318;BME280;56457;52.190;4.440;2023-04-24T01:29:33;100107.56;;;9.60;100.00
69318;BME280;56457;52.190;4.440;2023-04-24T01:30:34;100113.66;;;9.61;100.00
69318;BME280;56457;52.190;4.440;2023-04-24T01:31:34;100119.69;;;9.66;100.00
69318;BME280;56457;52.190;4.440;2023-04-24T01:32:35;100110.91;;;9.68;100.00
69318;BME280;56457;52.190;4.440;2023-04-24T01:33:36;100110.91;;;9.70;100.00
69318;BME280;56457;52.190;4.440;2023-04-24T01:34:36;100110.03;;;9.68;100.00
69318;BME280;56457;52.190;4.440;2023-04-24T01:35:37;100113.59;;;9.65;100.00
69318;BME280;56457;52.190;4.440;2023-04-24T01:36:37;100109.19;;;9.67;100.00
69318;BME280;56457;52.190;4.440;2023-04-24T01:37:38;100107.47;;;9.66;100.00
69318;BME280;56457;52.190;4.440;2023-04-24T01:38:38;100108.31;;;9.67;100.00
69318;BME280;56457;52.190;4.440;2023-04-24T01:39:38;100109.19;;;9.69;100.00
69318;BME280;56457;52.190;4.440;2023-04-24T01:40:39;100104.81;;;9.68;100.00
69318;BME280;56457;52.190;4.440;2023-04-24T01:41:39;100109.13;;;9.72;100.00
69318;BME280;56457;52.190;4.440;2023-04-24T01:42:40;100106.44;;;9.77;100.00
69318;BME280;56457;52.190;4.440;2023-04-24T01:43:41;100106.47;;;9.75;100.00
69318;BME280;56457;52.190;4.440;2023-04-24T01:44:41;100096.84;;;9.76;100.00
69318;BME280;56457;52.190;4.440;2023-04-24T01:45:41;100110.81;;;9.76;100.00
69318;BME280;56457;52.190;4.440;2023-04-24T01:46:42;100109.84;;;9.80;100.00
69318;BME280;56457;52.190;4.440;2023-04-24T01:47:42;100106.41;;;9.78;100.00
69318;BME280;56457;52.190;4.440;2023-04-24T01:48:44;100091.56;;;9.79;100.00
69318;BME280;56457;52.190;4.440;2023-04-24T01:49:45;100098.63;;;9.75;100.00
69318;BME280;56457;52.190;4.440;2023-04-24T01:50:45;100097.66;;;9.79;100.00
69318;BME280;56457;52.190;4.440;2023-04-24T01:51:46;100101.94;;;9.85;100.00
69318;BME280;56457;52.190;4.440;2023-04-24T01:52:46;100093.22;;;9.84;100.00
69318;BME280;56457;52.190;4.440;2023-04-24T01:53:47;100096.72;;;9.83;100.00
69318;BME280;56457;52.190;4.440;2023-04-24T01:54:47;100091.56;;;9.79;100.00
69318;BME280;56457;52.190;4.440;2023-04-24T01:55:47;100093.28;;;9.80;100.00
69318;BME280;56457;52.190;4.440;2023-04-24T01:56:48;100092.34;;;9.84;100.00
69318;BME280;56457;52.190;4.440;2023-04-24T01:57:48;100101.00;;;9.89;100.00
69318;BME280;56457;52.190;4.440;2023-04-24T01:58:49;100094.94;;;9.85;100.00
69318;BME280;56457;52.190;4.440;2023-04-24T01:59:50;100094.91;;;9.87;100.00
69318;BME280;56457;52.190;4.440;2023-04-24T02:00:51;100095.09;;;9.76;100.00
69318;BME280;56457;52.190;4.440;2023-04-24T02:01:51;100096.00;;;9.74;100.00
69318;BME280;56457;52.190;4.440;2023-04-24T02:02:51;100093.25;;;9.83;100.00
69318;BME280;56457;52.190;4.440;2023-04-24T02:03:52;100088.91;;;9.80;100.00
69318;BME280;56457;52.190;4.440;2023-04-24T02:04:52;100082.75;;;9.83;100.00
69318;BME280;56457;52.190;4.440;2023-04-24T02:05:53;100086.31;;;9.79;100.00
69318;BME280;56457;52.190;4.440;2023-04-24T02:06:53;100087.16;;;9.79;100.00
69318;BME280;56457;52.190;4.440;2023-04-24T02:07:53;100087.25;;;9.76;100.00
69318;BME280;56457;52.190;4.440;2023-04-24T02:08:54;100086.31;;;9.79;100.00
69318;BME280;56457;52.190;4.440;2023-04-24T02:09:54;100092.31;;;9.85;100.00
69318;BME280;56457;52.190;4.440;2023-04-24T02:10:55;100077.41;;;9.89;100.00
69318;BME280;56457;52.190;4.440;2023-04-24T02:11:55;100079.19;;;9.88;100.00
69318;BME280;56457;52.190;4.440;2023-04-24T02:12:56;100075.69;;;9.88;100.00
69318;BME280;56457;52.190;4.440;2023-04-24T02:13:56;100075.63;;;9.91;100.00
69318;BME280;56457;52.190;4.440;2023-04-24T02:14:57;100080.84;;;9.92;100.00
69318;BME280;56457;52.190;4.440;2023-04-24T02:15:59;100072.16;;;9.90;100.00
69318;BME280;56457;52.190;4.440;2023-04-24T02:17:00;100082.56;;;9.93;100.00
69318;BME280;56457;52.190;4.440;2023-04-24T02:18:00;100071.22;;;9.93;100.00
69318;BME280;56457;52.190;4.440;2023-04-24T02:19:01;100070.28;;;9.97;100.00
69318;BME280;56457;52.190;4.440;2023-04-24T02:20:01;100066.94;;;9.89;100.00
69318;BME280;56457;52.190;4.440;2023-04-24T02:21:02;100061.72;;;9.86;100.00
69318;BME280;56457;52.190;4.440;2023-04-24T02:22:02;100072.31;;;9.80;100.00
69318;BME280;56457;52.190;4.440;2023-04-24T02:23:02;100067.22;;;9.72;100.00
69318;BME280;56457;52.190;4.440;2023-04-24T02:24:03;100069.78;;;9.75;100.00
69318;BME280;56457;52.190;4.440;2023-04-24T02:25:04;100070.59;;;9.79;100.00
69318;BME280;56457;52.190;4.440;2023-04-24T02:26:05;100069.66;;;9.81;100.00
69318;BME280;56457;52.190;4.440;2023-04-24T02:27:05;100067.81;;;9.89;100.00
69318;BME280;56457;52.190;4.440;2023-04-24T02:28:05;100066.06;;;9.87;100.00
69318;BME280;56457;52.190;4.440;2023-04-24T02:29:06;100073.22;;;9.79;100.00
69318;BME280;56457;52.190;4.440;2023-04-24T02:30:06;100068.84;;;9.79;100.00
69318;BME280;56457;52.190;4.440;2023-04-24T02:31:07;100070.44;;;9.88;100.00
69318;BME280;56457;52.190;4.440;2023-04-24T02:32:08;100069.44;;;9.95;100.00
69318;BME280;56457;52.190;4.440;2023-04-24T02:33:11;100071.06;;;10.02;100.00
69318;BME280;56457;52.190;4.440;2023-04-24T02:34:12;100061.53;;;9.98;100.00
69318;BME280;56457;52.190;4.440;2023-04-24T02:35:12;100061.47;;;9.99;100.00
69318;BME280;56457;52.190;4.440;2023-04-24T02:36:12;100064.09;;;9.99;100.00
69318;BME280;56457;52.190;4.440;2023-04-24T02:37:13;100057.09;;;10.02;100.00
69318;BME280;56457;52.190;4.440;2023-04-24T02:38:14;100066.72;;;9.99;100.00
69318;BME280;56457;52.190;4.440;2023-04-24T02:39:14;100072.00;;;9.98;100.00
69318;BME280;56457;52.190;4.440;2023-04-24T02:40:16;100069.41;;;9.96;100.00
69318;BME280;56457;52.190;4.440;2023-04-24T02:41:16;100069.34;;;9.99;100.00
69318;BME280;56457;52.190;4.440;2023-04-24T02:42:17;100073.72;;;9.99;100.00
69318;BME280;56457;52.190;4.440;2023-04-24T02:43:17;100072.88;;;10.00;100.00
69318;BME280;56457;52.190;4.440;2023-04-24T02:44:17;100077.25;;;9.98;100.00
69318;BME280;56457;52.190;4.440;2023-04-24T02:45:17;100069.44;;;9.95;100.00
69318;BME280;56457;52.190;4.440;2023-04-24T02:46:18;100076.41;;;9.96;100.00
69318;BME280;56457;52.190;4.440;2023-04-24T02:47:18;100084.31;;;9.94;100.00
69318;BME280;56457;52.190;4.440;2023-04-24T02:48:18;100082.59;;;9.92;100.00
69318;BME280;56457;52.190;4.440;2023-04-24T02:49:20;100089.59;;;9.91;100.00
69318;BME280;56457;52.190;4.440;2023-04-24T02:50:21;100087.91;;;9.89;100.00
69318;BME280;56457;52.190;4.440;2023-04-24T02:51:21;100093.97;;;9.91;100.00
69318;BME280;56457;52.190;4.440;2023-04-24T02:52:21;100094.81;;;9.91;100.00
69318;BME280;56457;52.190;4.440;2023-04-24T02:53:21;100097.41;;;9.94;100.00
69318;BME280;56457;52.190;4.440;2023-04-24T02:54:23;100104.41;;;9.94;100.00
69318;BME280;56457;52.190;4.440;2023-04-24T02:55:23;100097.34;;;9.97;100.00
69318;BME280;56457;52.190;4.440;2023-04-24T02:56:23;100108.69;;;9.98;100.00
69318;BME280;56457;52.190;4.440;2023-04-24T02:57:24;100103.44;;;9.98;100.00
69318;BME280;56457;52.190;4.440;2023-04-24T02:58:24;100113.91;;;10.01;100.00
69318;BME280;56457;52.190;4.440;2023-04-24T02:59:25;100105.16;;;9.99;100.00
69318;BME280;56457;52.190;4.440;2023-04-24T03:00:27;100109.56;;;9.98;100.00
69318;BME280;56457;52.190;4.440;2023-04-24T03:01:27;100108.66;;;9.99;100.00
69318;BME280;56457;52.190;4.440;2023-04-24T03:02:27;100106.03;;;10.01;100.00
69318;BME280;56457;52.190;4.440;2023-04-24T03:03:28;100110.41;;;10.01;100.00
69318;BME280;56457;52.190;4.440;2023-04-24T03:04:28;100115.63;;;10.02;100.00
69318;BME280;56457;52.190;4.440;2023-04-24T03:05:28;100112.97;;;10.04;100.00
69318;BME280;56457;52.190;4.440;2023-04-24T03:06:30;100113.78;;;10.06;100.00
69318;BME280;56457;52.190;4.440;2023-04-24T03:07:33;100107.69;;;10.05;100.00
69318;BME280;56457;52.190;4.440;2023-04-24T03:08:33;100113.81;;;10.04;100.00
69318;BME280;56457;52.190;4.440;2023-04-24T03:09:34;100116.47;;;10.03;100.00
69318;BME280;56457;52.190;4.440;2023-04-24T03:10:34;100112.16;;;10.00;100.00
69318;BME280;56457;52.190;4.440;2023-04-24T03:11:34;100111.28;;;9.99;100.00
69318;BME280;56457;52.190;4.440;2023-04-24T03:12:35;100112.22;;;9.97;100.00
69318;BME280;56457;52.190;4.440;2023-04-24T03:13:35;100109.59;;;9.97;100.00
69318;BME280;56457;52.190;4.440;2023-04-24T03:14:35;100116.59;;;9.96;100.00
69318;BME280;56457;52.190;4.440;2023-04-24T03:15:36;100110.50;;;9.93;100.00
69318;BME280;56457;52.190;4.440;2023-04-24T03:16:36;100109.66;;;9.92;100.00
69318;BME280;56457;52.190;4.440;2023-04-24T03:17:36;100116.56;;;9.98;100.00
69318;BME280;56457;52.190;4.440;2023-04-24T03:18:37;100107.78;;;9.99;100.00
69318;BME280;56457;52.190;4.440;2023-04-24T03:19:37;100115.63;;;10.02;100.00
69318;BME280;56457;52.190;4.440;2023-04-24T03:20:37;100118.28;;;10.01;100.00
69318;BME280;56457;52.190;4.440;2023-04-24T03:21:38;100110.44;;;9.97;100.00
69318;BME280;56457;52.190;4.440;2023-04-24T03:22:40;100112.16;;;9.98;100.00
69318;BME280;56457;52.190;4.440;2023-04-24T03:23:40;100102.66;;;9.93;100.00
69318;BME280;56457;52.190;4.440;2023-04-24T03:24:41;100092.31;;;9.85;100.00
69318;BME280;56457;52.190;4.440;2023-04-24T03:25:41;100091.41;;;9.86;100.00
69318;BME280;56457;52.190;4.440;2023-04-24T03:26:42;100091.44;;;9.85;100.00
69318;BME280;56457;52.190;4.440;2023-04-24T03:27:43;100098.44;;;9.84;100.00
69318;BME280;56457;52.190;4.440;2023-04-24T03:28:43;100089.75;;;9.81;100.00
69318;BME280;56457;52.190;4.440;2023-04-24T03:29:43;100081.03;;;9.80;100.00
69318;BME280;56457;52.190;4.440;2023-04-24T03:30:44;100089.75;;;9.82;100.00
69318;BME280;56457;52.190;4.440;2023-04-24T03:31:44;100094.06;;;9.85;100.00
69318;BME280;56457;52.190;4.440;2023-04-24T03:32:44;100090.56;;;9.86;100.00
69318;BME280;56457;52.190;4.440;2023-04-24T03:33:45;100098.41;;;9.86;100.00
69318;BME280;56457;52.190;4.440;2023-04-24T03:34:45;100099.28;;;9.86;100.00
69318;BME280;56457;52.190;4.440;2023-04-24T03:35:45;100096.69;;;9.85;100.00
69318;BME280;56457;52.190;4.440;2023-04-24T03:36:46;100101.97;;;9.83;100.00
69318;BME280;56457;52.190;4.440;2023-04-24T03:37:49;100097.69;;;9.78;100.00
69318;BME280;56457;52.190;4.440;2023-04-24T03:38:49;100091.56;;;9.79;100.00
69318;BME280;56457;52.190;4.440;2023-04-24T03:39:49;100088.97;;;9.77;100.00
69318;BME280;56457;52.190;4.440;2023-04-24T03:40:50;100086.38;;;9.76;100.00
69318;BME280;56457;52.190;4.440;2023-04-24T03:41:50;100098.66;;;9.72;100.00
69318;BME280;56457;52.190;4.440;2023-04-24T03:42:50;100093.47;;;9.67;100.00
69318;BME280;56457;52.190;4.440;2023-04-24T03:43:50;100097.91;;;9.64;100.00
69318;BME280;56457;52.190;4.440;2023-04-24T03:44:50;100094.41;;;9.65;100.00
69318;BME280;56457;52.190;4.440;2023-04-24T03:45:51;100093.50;;;9.66;100.00
69318;BME280;56457;52.190;4.440;2023-04-24T03:46:51;100088.19;;;9.70;100.00
69318;BME280;56457;52.190;4.440;2023-04-24T03:47:51;100088.19;;;9.70;100.00
69318;BME280;56457;52.190;4.440;2023-04-24T03:48:51;100090.81;;;9.70;100.00
69318;BME280;56457;52.190;4.440;2023-04-24T03:49:52;100091.81;;;9.63;100.00
69318;BME280;56457;52.190;4.440;2023-04-24T03:50:53;100096.09;;;9.69;100.00
69318;BME280;56457;52.190;4.440;2023-04-24T03:51:54;100104.75;;;9.73;100.00
69318;BME280;56457;52.190;4.440;2023-04-24T03:52:54;100100.34;;;9.75;100.00
69318;BME280;56457;52.190;4.440;2023-04-24T03:53:54;100102.19;;;9.69;100.00
69318;BME280;56457;52.190;4.440;2023-04-24T03:54:54;100093.38;;;9.74;100.00
69318;BME280;56457;52.190;4.440;2023-04-24T03:55:55;100103.91;;;9.70;100.00
69318;BME280;56457;52.190;4.440;2023-04-24T03:56:55;100091.72;;;9.69;100.00
69318;BME280;56457;52.190;4.440;2023-04-24T03:57:56;100107.44;;;9.69;100.00
69318;BME280;56457;52.190;4.440;2023-04-24T03:58:56;100096.88;;;9.73;100.00
69318;BME280;56457;52.190;4.440;2023-04-24T03:59:57;100096.13;;;9.66;100.00
69318;BME280;56457;52.190;4.440;2023-04-24T04:00:57;100095.19;;;9.68;100.00
69318;BME280;56457;52.190;4.440;2023-04-24T04:01:58;100105.69;;;9.68;100.00
69318;BME280;56457;52.190;4.440;2023-04-24T04:02:58;100097.88;;;9.65;100.00
69318;BME280;56457;52.190;4.440;2023-04-24T04:03:58;100107.53;;;9.62;100.00
69318;BME280;56457;52.190;4.440;2023-04-24T04:04:59;100115.28;;;9.69;100.00
69318;BME280;56457;52.190;4.440;2023-04-24T04:05:59;100112.56;;;9.74;100.00
69318;BME280;56457;52.190;4.440;2023-04-24T04:07:00;100119.56;;;9.74;100.00
69318;BME280;56457;52.190;4.440;2023-04-24T04:08:02;100131.00;;;9.69;100.00
69318;BME280;56457;52.190;4.440;2023-04-24T04:09:03;100131.88;;;9.68;100.00
69318;BME280;56457;52.190;4.440;2023-04-24T04:10:03;100133.63;;;9.68;100.00
69318;BME280;56457;52.190;4.440;2023-04-24T04:11:04;100129.34;;;9.62;100.00
69318;BME280;56457;52.190;4.440;2023-04-24T04:12:04;100132.94;;;9.57;100.00
69318;BME280;56457;52.190;4.440;2023-04-24T04:13:04;100147.72;;;9.59;100.00
69318;BME280;56457;52.190;4.440;2023-04-24T04:14:06;100149.50;;;9.59;100.00
69318;BME280;56457;52.190;4.440;2023-04-24T04:15:06;100158.25;;;9.56;100.00
69318;BME280;56457;52.190;4.440;2023-04-24T04:16:08;100152.13;;;9.56;100.00
69318;BME280;56457;52.190;4.440;2023-04-24T04:17:08;100154.06;;;9.43;100.00
69318;BME280;56457;52.190;4.440;2023-04-24T04:18:08;100163.72;;;9.39;100.00
69318;BME280;56457;52.190;4.440;2023-04-24T04:19:09;100165.50;;;9.36;100.00
69318;BME280;56457;52.190;4.440;2023-04-24T04:20:09;100171.63;;;9.36;100.00
69318;BME280;56457;52.190;4.440;2023-04-24T04:21:10;100169.94;;;9.32;100.00
69318;BME280;56457;52.190;4.440;2023-04-24T04:22:11;100171.69;;;9.32;100.00
69318;BME280;56457;52.190;4.440;2023-04-24T04:23:11;100178.66;;;9.31;100.00
69318;BME280;56457;52.190;4.440;2023-04-24T04:24:11;100179.59;;;9.27;100.00
69318;BME280;56457;52.190;4.440;2023-04-24T04:25:12;100179.56;;;9.29;100.00
69318;BME280;56457;52.190;4.440;2023-04-24T04:26:13;100189.16;;;9.30;100.00
69318;BME280;56457;52.190;4.440;2023-04-24T04:27:13;100180.47;;;9.28;100.00
69318;BME280;56457;52.190;4.440;2023-04-24T04:28:14;100191.03;;;9.20;100.00
69318;BME280;56457;52.190;4.440;2023-04-24T04:29:15;100191.13;;;9.11;100.00
69318;BME280;56457;52.190;4.440;2023-04-24T04:30:15;100191.94;;;9.17;100.00
69318;BME280;56457;52.190;4.440;2023-04-24T04:31:16;100200.72;;;9.13;100.00
69318;BME280;56457;52.190;4.440;2023-04-24T04:32:16;100192.03;;;9.10;100.00
69318;BME280;56457;52.190;4.440;2023-04-24T04:33:16;100184.22;;;9.05;100.00
69318;BME280;56457;52.190;4.440;2023-04-24T04:34:17;100191.28;;;8.99;100.00
69318;BME280;56457;52.190;4.440;2023-04-24T04:35:18;100198.25;;;9.00;100.00
69318;BME280;56457;52.190;4.440;2023-04-24T04:36:18;100198.28;;;8.97;100.00
69318;BME280;56457;52.190;4.440;2023-04-24T04:37:19;100200.91;;;8.97;100.00
69318;BME280;56457;52.190;4.440;2023-04-24T04:38:19;100214.00;;;8.95;100.00
69318;BME280;56457;52.190;4.440;2023-04-24T04:39:19;100206.13;;;8.97;100.00
69318;BME280;56457;52.190;4.440;2023-04-24T04:40:20;100208.78;;;8.95;100.00
69318;BME280;56457;52.190;4.440;2023-04-24T04:41:20;100207.09;;;8.89;100.00
69318;BME280;56457;52.190;4.440;2023-04-24T04:42:20;100221.88;;;8.92;100.00
69318;BME280;56457;52.190;4.440;2023-04-24T04:43:21;100218.41;;;8.92;100.00
69318;BME280;56457;52.190;4.440;2023-04-24T04:44:21;100235.03;;;8.86;100.00
69318;BME280;56457;52.190;4.440;2023-04-24T04:45:21;100233.31;;;8.83;100.00
69318;BME280;56457;52.190;4.440;2023-04-24T04:46:24;100230.75;;;8.79;100.00
69318;BME280;56457;52.190;4.440;2023-04-24T04:47:26;100234.19;;;8.84;100.00
69318;BME280;56457;52.190;4.440;2023-04-24T04:48:27;100245.56;;;8.80;100.00
69318;BME280;56457;52.190;4.440;2023-04-24T04:49:27;100248.13;;;8.81;100.00
69318;BME280;56457;52.190;4.440;2023-04-24T04:50:28;100254.25;;;8.80;100.00
69318;BME280;56457;52.190;4.440;2023-04-24T04:51:29;100249.84;;;8.85;100.00
69318;BME280;56457;52.190;4.440;2023-04-24T04:52:29;100255.13;;;8.84;100.00
69318;BME280;56457;52.190;4.440;2023-04-24T04:53:29;100249.00;;;8.83;100.00
69318;BME280;56457;52.190;4.440;2023-04-24T04:54:30;100246.50;;;8.73;100.00
69318;BME280;56457;52.190;4.440;2023-04-24T04:55:30;100252.63;;;8.72;100.00
69318;BME280;56457;52.190;4.440;2023-04-24T04:56:31;100261.34;;;8.71;100.00
69318;BME280;56457;52.190;4.440;2023-04-24T04:57:31;100252.66;;;8.67;100.00
69318;BME280;56457;52.190;4.440;2023-04-24T04:58:31;100262.25;;;8.67;100.00
69318;BME280;56457;52.190;4.440;2023-04-24T04:59:32;100279.72;;;8.65;100.00
69318;BME280;56457;52.190;4.440;2023-04-24T05:00:32;100274.47;;;8.65;100.00
69318;BME280;56457;52.190;4.440;2023-04-24T05:01:35;100266.63;;;8.63;100.00
69318;BME280;56457;52.190;4.440;2023-04-24T05:02:36;100284.94;;;8.65;100.00
69318;BME280;56457;52.190;4.440;2023-04-24T05:03:36;100270.19;;;8.57;100.00
69318;BME280;56457;52.190;4.440;2023-04-24T05:04:37;100284.13;;;8.55;100.00
69318;BME280;56457;52.190;4.440;2023-04-24T05:05:37;100287.66;;;8.52;100.00
69318;BME280;56457;52.190;4.440;2023-04-24T05:06:40;100286.72;;;8.59;100.00
69318;BME280;56457;52.190;4.440;2023-04-24T05:07:40;100289.34;;;8.56;100.00
69318;BME280;56457;52.190;4.440;2023-04-24T05:08:41;100293.72;;;8.56;100.00
69318;BME280;56457;52.190;4.440;2023-04-24T05:09:41;100293.78;;;8.51;100.00
69318;BME280;56457;52.190;4.440;2023-04-24T05:10:41;100298.97;;;8.50;100.00
69318;BME280;56457;52.190;4.440;2023-04-24T05:11:41;100298.19;;;8.45;100.00
69318;BME280;56457;52.190;4.440;2023-04-24T05:12:42;100297.31;;;8.43;100.00
69318;BME280;56457;52.190;4.440;2023-04-24T05:13:42;100301.66;;;8.45;100.00
69318;BME280;56457;52.190;4.440;2023-04-24T05:14:42;100322.50;;;8.50;100.00
69318;BME280;56457;52.190;4.440;2023-04-24T05:15:42;100306.78;;;8.56;100.00
69318;BME280;56457;52.190;4.440;2023-04-24T05:16:43;100318.13;;;8.55;100.00